Time;durP1;ratioP1;P1;durP2;ratioP2;P2;SDS_P1;SDS_P2;PMS_P1;PMS_P2;Temp;Humidity;BMP_temperature;BMP_pressure;BME280_temperature;BME280_humidity;BME280_pressure;Samples;Min_cycle;Max_cycle;Signal;HPM_P1;HPM_P2
2021/10/19 00:00:10;;;;;;;0.50;0.50;;;;;;;;;;5071640;28;20917;-66
2021/10/19 00:02:36;;;;;;;0.40;0.40;;;;;;;;;;5071749;28;20309;-66
2021/10/19 00:05:03;;;;;;;0.40;0.40;;;;;;;;;;5071419;28;20217;-66
2021/10/19 00:07:29;;;;;;;0.45;0.45;;;;;;;;;;5071667;28;20935;-66
2021/10/19 00:09:55;;;;;;;0.40;0.40;;;;;;;;;;5071603;28;20179;-66
2021/10/19 00:12:21;;;;;;;0.43;0.43;;;;;;;;;;5071420;28;20413;-66
2021/10/19 00:14:47;;;;;;;0.40;0.40;;;;;;;;;;5071609;28;20172;-66
2021/10/19 00:17:13;;;;;;;0.50;0.50;;;;;;;;;;5071524;28;20421;-66
2021/10/19 00:19:39;;;;;;;0.40;0.40;;;;;;;;;;5071392;28;20252;-66
2021/10/19 00:22:05;;;;;;;0.30;0.30;;;;;;;;;;5070879;28;20843;-66
2021/10/19 00:24:31;;;;;;;0.40;0.40;;;;;;;;;;5070936;28;20202;-66
2021/10/19 00:26:57;;;;;;;0.40;0.40;;;;;;;;;;5071422;28;20424;-66
2021/10/19 00:29:23;;;;;;;0.40;0.40;;;;;;;;;;5071448;28;20686;-66
2021/10/19 00:31:52;;;;;;;0.40;0.40;;;;;;;;;;5071229;28;20405;-66
2021/10/19 00:34:18;;;;;;;0.40;0.40;;;;;;;;;;5071275;28;20410;-66
2021/10/19 00:36:44;;;;;;;0.40;0.40;;;;;;;;;;5071317;28;20195;-66
2021/10/19 00:39:11;;;;;;;0.40;0.40;;;;;;;;;;5071344;28;20175;-66
2021/10/19 00:41:37;;;;;;;0.40;0.40;;;;;;;;;;5071122;28;20233;-66
2021/10/19 00:44:03;;;;;;;0.40;0.40;;;;;;;;;;5071242;28;20203;-66
2021/10/19 00:46:29;;;;;;;0.40;0.40;;;;;;;;;;5091595;22;20229;-65
2021/10/19 00:48:55;;;;;;;0.40;0.40;;;;;;;;;;5091302;28;20166;-65
2021/10/19 00:51:21;;;;;;;0.40;0.40;;;;;;;;;;5072780;28;20412;-65
2021/10/19 00:53:47;;;;;;;0.40;0.40;;;;;;;;;;5091562;28;20403;-65
2021/10/19 00:56:13;;;;;;;0.50;0.50;;;;;;;;;;5091448;28;20191;-65
2021/10/19 00:58:40;;;;;;;0.40;0.40;;;;;;;;;;5091515;28;20171;-64
2021/10/19 01:01:06;;;;;;;0.40;0.40;;;;;;;;;;5091269;28;20170;-66
2021/10/19 01:03:32;;;;;;;0.40;0.40;;;;;;;;;;5091288;28;20174;-66
2021/10/19 01:06:00;;;;;;;0.40;0.40;;;;;;;;;;5091361;28;20193;-66
2021/10/19 01:08:26;;;;;;;0.40;0.40;;;;;;;;;;5091035;28;20175;-66
2021/10/19 01:10:52;;;;;;;0.40;0.40;;;;;;;;;;5072987;28;20295;-66
2021/10/19 01:13:18;;;;;;;0.40;0.40;;;;;;;;;;5091274;28;20170;-66
2021/10/19 01:15:45;;;;;;;0.40;0.40;;;;;;;;;;5091212;28;20182;-66
2021/10/19 01:18:15;;;;;;;0.40;0.40;;;;;;;;;;5091183;28;20419;-67
2021/10/19 01:20:41;;;;;;;0.40;0.40;;;;;;;;;;5091032;28;20224;-66
2021/10/19 01:23:08;;;;;;;0.40;0.40;;;;;;;;;;5073072;28;20645;-66
2021/10/19 01:25:34;;;;;;;0.40;0.40;;;;;;;;;;5091047;28;20731;-67
2021/10/19 01:28:01;;;;;;;0.40;0.40;;;;;;;;;;5091154;28;20193;-66
2021/10/19 01:30:27;;;;;;;0.40;0.40;;;;;;;;;;5072728;28;20836;-65
2021/10/19 01:32:54;;;;;;;0.40;0.40;;;;;;;;;;5090986;28;20167;-66
2021/10/19 01:35:30;;;;;;;0.40;0.40;;;;;;;;;;5093775;28;20303;-66
2021/10/19 01:37:56;;;;;;;0.40;0.40;;;;;;;;;;5094775;28;20190;-66
2021/10/19 01:40:22;;;;;;;0.40;0.40;;;;;;;;;;5094391;28;20181;-66
2021/10/19 01:42:48;;;;;;;0.40;0.40;;;;;;;;;;5094261;28;20413;-66
2021/10/19 01:45:15;;;;;;;0.40;0.40;;;;;;;;;;5076278;28;20492;-66
2021/10/19 01:47:41;;;;;;;0.40;0.40;;;;;;;;;;5094266;28;20447;-66
2021/10/19 01:50:08;;;;;;;0.40;0.40;;;;;;;;;;5094306;28;20167;-66
2021/10/19 01:52:34;;;;;;;0.40;0.40;;;;;;;;;;5076228;28;20269;-66
2021/10/19 01:55:00;;;;;;;0.40;0.40;;;;;;;;;;5094316;28;20262;-66
2021/10/19 01:57:26;;;;;;;0.40;0.40;;;;;;;;;;5094154;28;20432;-66
2021/10/19 01:59:52;;;;;;;0.40;0.40;;;;;;;;;;5094256;28;20185;-66
2021/10/19 02:02:18;;;;;;;0.40;0.40;;;;;;;;;;5094002;28;20412;-66
2021/10/19 02:04:44;;;;;;;0.40;0.40;;;;;;;;;;5075860;28;20456;-66
2021/10/19 02:07:10;;;;;;;0.40;0.40;;;;;;;;;;5094038;28;20424;-66
2021/10/19 02:09:36;;;;;;;0.40;0.40;;;;;;;;;;5094025;28;20405;-66
2021/10/19 02:12:01;;;;;;;0.40;0.40;;;;;;;;;;5093703;28;20405;-66
2021/10/19 02:14:27;;;;;;;0.50;0.50;;;;;;;;;;5093909;28;20775;-65
2021/10/19 02:16:53;;;;;;;0.40;0.40;;;;;;;;;;5093819;28;20769;-66
2021/10/19 02:19:22;;;;;;;0.40;0.40;;;;;;;;;;5093895;28;20411;-66
2021/10/19 02:21:48;;;;;;;0.50;0.50;;;;;;;;;;5093885;28;20556;-66
2021/10/19 02:24:14;;;;;;;0.40;0.40;;;;;;;;;;5093764;28;20194;-66
2021/10/19 02:26:40;;;;;;;0.40;0.40;;;;;;;;;;5093679;28;20194;-66
2021/10/19 02:29:06;;;;;;;0.50;0.50;;;;;;;;;;5093650;28;20181;-66
2021/10/19 02:31:32;;;;;;;0.40;0.40;;;;;;;;;;5093320;28;20408;-66
2021/10/19 02:33:58;;;;;;;0.40;0.40;;;;;;;;;;5093556;28;20404;-66
2021/10/19 02:36:24;;;;;;;0.40;0.40;;;;;;;;;;5093502;28;20428;-66
2021/10/19 02:38:50;;;;;;;0.40;0.40;;;;;;;;;;5093447;28;20409;-66
2021/10/19 02:41:16;;;;;;;0.40;0.40;;;;;;;;;;5093434;28;21016;-66
2021/10/19 02:43:42;;;;;;;0.50;0.50;;;;;;;;;;5093338;28;20410;-66
2021/10/19 02:46:08;;;;;;;0.40;0.40;;;;;;;;;;5092316;28;20444;-65
2021/10/19 02:48:34;;;;;;;0.40;0.40;;;;;;;;;;5093410;28;20766;-65
2021/10/19 02:50:59;;;;;;;0.40;0.40;;;;;;;;;;5093071;28;20880;-65
2021/10/19 02:53:25;;;;;;;0.40;0.40;;;;;;;;;;5093192;28;20409;-66
2021/10/19 02:55:51;;;;;;;0.40;0.40;;;;;;;;;;5093079;28;20825;-66
2021/10/19 02:58:17;;;;;;;0.40;0.40;;;;;;;;;;5093162;28;20767;-66
2021/10/19 03:00:43;;;;;;;0.40;0.40;;;;;;;;;;5092736;28;20767;-66
2021/10/19 03:03:09;;;;;;;0.40;0.40;;;;;;;;;;5092856;28;20963;-66
2021/10/19 03:05:35;;;;;;;0.40;0.40;;;;;;;;;;5092718;28;20991;-66
2021/10/19 03:08:01;;;;;;;0.40;0.40;;;;;;;;;;5092791;28;20405;-66
2021/10/19 03:10:27;;;;;;;0.40;0.40;;;;;;;;;;5092500;28;20401;-66
2021/10/19 03:12:53;;;;;;;0.40;0.40;;;;;;;;;;5092761;28;20410;-66
2021/10/19 03:15:22;;;;;;;0.40;0.40;;;;;;;;;;5092690;28;20257;-66
2021/10/19 03:17:48;;;;;;;0.40;0.40;;;;;;;;;;5092726;28;20458;-66
2021/10/19 03:20:14;;;;;;;0.50;0.50;;;;;;;;;;5092575;28;20720;-66
2021/10/19 03:22:39;;;;;;;0.40;0.40;;;;;;;;;;5092616;28;21049;-66
2021/10/19 03:25:06;;;;;;;0.40;0.40;;;;;;;;;;5092604;28;20456;-66
2021/10/19 03:27:32;;;;;;;0.40;0.40;;;;;;;;;;5092716;28;20425;-66
2021/10/19 03:29:58;;;;;;;0.40;0.40;;;;;;;;;;5092498;28;20655;-66
2021/10/19 03:32:23;;;;;;;0.40;0.40;;;;;;;;;;5092315;28;20447;-66
2021/10/19 03:34:49;;;;;;;0.40;0.40;;;;;;;;;;5092427;28;20408;-66
2021/10/19 03:37:15;;;;;;;0.40;0.40;;;;;;;;;;5092312;28;20432;-66
2021/10/19 03:39:41;;;;;;;0.40;0.40;;;;;;;;;;5074321;28;20400;-66
2021/10/19 03:42:07;;;;;;;0.40;0.40;;;;;;;;;;5092222;28;20197;-66
2021/10/19 03:44:33;;;;;;;0.40;0.40;;;;;;;;;;5092418;28;20460;-66
2021/10/19 03:46:59;;;;;;;0.40;0.40;;;;;;;;;;5092238;28;20617;-66
2021/10/19 03:49:25;;;;;;;0.50;0.50;;;;;;;;;;5092105;28;20407;-65
2021/10/19 03:51:51;;;;;;;0.40;0.40;;;;;;;;;;5073774;28;20440;-66
2021/10/19 03:54:17;;;;;;;0.40;0.40;;;;;;;;;;5092157;28;20854;-65
2021/10/19 03:56:43;;;;;;;0.40;0.40;;;;;;;;;;5091939;28;20927;-65
2021/10/19 03:59:09;;;;;;;0.40;0.40;;;;;;;;;;5092016;28;20451;-66
2021/10/19 04:01:35;;;;;;;0.40;0.40;;;;;;;;;;5092067;28;20174;-66
2021/10/19 04:04:01;;;;;;;0.40;0.40;;;;;;;;;;5092196;28;20517;-66
2021/10/19 04:06:28;;;;;;;0.40;0.40;;;;;;;;;;5091846;28;20432;-65
2021/10/19 04:08:54;;;;;;;0.40;0.40;;;;;;;;;;5092125;28;20404;-65
2021/10/19 04:11:20;;;;;;;0.40;0.40;;;;;;;;;;5091597;28;20630;-66
2021/10/19 04:13:46;;;;;;;0.40;0.40;;;;;;;;;;5073687;28;20417;-65
2021/10/19 04:16:13;;;;;;;0.40;0.40;;;;;;;;;;5091853;28;20435;-66
2021/10/19 04:18:39;;;;;;;0.40;0.40;;;;;;;;;;5091963;28;20413;-66
2021/10/19 04:21:05;;;;;;;0.40;0.40;;;;;;;;;;5073392;28;20170;-66
2021/10/19 04:23:31;;;;;;;0.40;0.40;;;;;;;;;;5091986;28;20174;-65
2021/10/19 04:25:57;;;;;;;0.40;0.40;;;;;;;;;;5091893;28;20221;-66
2021/10/19 04:28:23;;;;;;;0.50;0.50;;;;;;;;;;5092032;28;20397;-66
2021/10/19 04:30:50;;;;;;;0.45;0.45;;;;;;;;;;5090493;28;20263;-66
2021/10/19 04:33:16;;;;;;;0.40;0.40;;;;;;;;;;5108181;28;20177;-66
2021/10/19 04:35:43;;;;;;;0.40;0.40;;;;;;;;;;5111851;28;20174;-66
2021/10/19 04:38:09;;;;;;;0.40;0.40;;;;;;;;;;5111962;28;20169;-66
2021/10/19 04:40:35;;;;;;;0.40;0.40;;;;;;;;;;5111779;28;20188;-66
2021/10/19 04:43:01;;;;;;;0.40;0.40;;;;;;;;;;5111871;28;20536;-66
2021/10/19 04:45:28;;;;;;;0.40;0.40;;;;;;;;;;5111813;28;20549;-66
2021/10/19 04:47:55;;;;;;;0.40;0.40;;;;;;;;;;5111757;28;20439;-66
2021/10/19 04:50:21;;;;;;;0.40;0.40;;;;;;;;;;5111520;28;20208;-66
2021/10/19 04:52:47;;;;;;;0.40;0.40;;;;;;;;;;5111912;28;20220;-65
2021/10/19 04:55:13;;;;;;;0.40;0.40;;;;;;;;;;5111866;28;20411;-65
2021/10/19 04:57:39;;;;;;;0.40;0.40;;;;;;;;;;5111729;28;20465;-66
2021/10/19 05:00:05;;;;;;;0.40;0.40;;;;;;;;;;5111714;28;20406;-66
2021/10/19 05:02:31;;;;;;;0.40;0.40;;;;;;;;;;5111813;28;20411;-66
2021/10/19 05:04:57;;;;;;;0.40;0.40;;;;;;;;;;5111673;28;20224;-66
2021/10/19 05:07:23;;;;;;;0.40;0.40;;;;;;;;;;5111729;28;20862;-66
2021/10/19 05:09:49;;;;;;;0.40;0.40;;;;;;;;;;5113929;28;20423;-66
2021/10/19 05:12:15;;;;;;;0.40;0.40;;;;;;;;;;5115459;28;20293;-66
2021/10/19 05:14:41;;;;;;;0.40;0.40;;;;;;;;;;5115641;28;20403;-66
2021/10/19 05:17:08;;;;;;;0.40;0.40;;;;;;;;;;5115637;28;20423;-66
2021/10/19 05:19:34;;;;;;;0.40;0.40;;;;;;;;;;5115643;28;20953;-66
2021/10/19 05:22:00;;;;;;;0.40;0.40;;;;;;;;;;5114218;28;20273;-66
2021/10/19 05:24:26;;;;;;;0.40;0.40;;;;;;;;;;5096695;28;20462;-66
2021/10/19 05:26:52;;;;;;;0.40;0.40;;;;;;;;;;5115367;28;20419;-66
2021/10/19 05:29:18;;;;;;;0.40;0.40;;;;;;;;;;5115534;28;20434;-66
2021/10/19 05:31:44;;;;;;;0.40;0.40;;;;;;;;;;5111872;28;20431;-66
2021/10/19 05:34:10;;;;;;;0.40;0.40;;;;;;;;;;5094879;28;20641;-66
2021/10/19 05:36:36;;;;;;;0.40;0.40;;;;;;;;;;5094016;28;20485;-66
2021/10/19 05:39:02;;;;;;;0.40;0.40;;;;;;;;;;5094741;28;20416;-66
2021/10/19 05:41:28;;;;;;;0.40;0.40;;;;;;;;;;5087825;28;20425;-66
2021/10/19 05:43:54;;;;;;;0.40;0.40;;;;;;;;;;5089299;28;20404;-66
2021/10/19 05:46:20;;;;;;;0.40;0.40;;;;;;;;;;5093933;28;20267;-66
2021/10/19 05:48:46;;;;;;;0.40;0.40;;;;;;;;;;5076273;28;20182;-65
2021/10/19 05:51:11;;;;;;;0.40;0.40;;;;;;;;;;5094263;28;20771;-66
2021/10/19 05:53:37;;;;;;;0.40;0.40;;;;;;;;;;5082595;28;20471;-66
2021/10/19 05:56:03;;;;;;;0.40;0.40;;;;;;;;;;5094016;28;20472;-66
2021/10/19 05:58:29;;;;;;;0.40;0.40;;;;;;;;;;5094386;28;20954;-66
2021/10/19 06:00:55;;;;;;;0.40;0.40;;;;;;;;;;5093647;28;20231;-66
2021/10/19 06:03:21;;;;;;;0.40;0.40;;;;;;;;;;5094175;28;20187;-66
2021/10/19 06:05:47;;;;;;;0.40;0.40;;;;;;;;;;5094506;28;20489;-66
2021/10/19 06:08:13;;;;;;;0.40;0.40;;;;;;;;;;5094845;28;20443;-66
2021/10/19 06:10:39;;;;;;;0.40;0.40;;;;;;;;;;5093887;28;20424;-66
2021/10/19 06:13:05;;;;;;;0.40;0.40;;;;;;;;;;5095310;28;20207;-66
2021/10/19 06:15:31;;;;;;;0.40;0.40;;;;;;;;;;5094470;28;20420;-66
2021/10/19 06:17:57;;;;;;;0.35;0.35;;;;;;;;;;5094599;28;20436;-66
2021/10/19 06:20:23;;;;;;;0.40;0.40;;;;;;;;;;5073993;28;20526;-66
2021/10/19 06:22:49;;;;;;;0.40;0.40;;;;;;;;;;5094354;28;20484;-66
2021/10/19 06:25:15;;;;;;;0.40;0.40;;;;;;;;;;5091671;28;20463;-66
2021/10/19 06:27:41;;;;;;;0.40;0.40;;;;;;;;;;5094178;28;20549;-66
2021/10/19 06:30:07;;;;;;;0.40;0.40;;;;;;;;;;5092791;28;20427;-66
2021/10/19 06:32:33;;;;;;;0.40;0.40;;;;;;;;;;5093731;28;20412;-66
2021/10/19 06:34:59;;;;;;;0.40;0.40;;;;;;;;;;5094014;28;20641;-66
2021/10/19 06:37:25;;;;;;;0.40;0.40;;;;;;;;;;5093450;28;20440;-65
2021/10/19 06:39:51;;;;;;;0.40;0.40;;;;;;;;;;5093842;28;20879;-66
2021/10/19 06:42:17;;;;;;;0.40;0.40;;;;;;;;;;5091707;28;20644;-66
2021/10/19 06:44:43;;;;;;;0.40;0.40;;;;;;;;;;5094747;28;21097;-67
2021/10/19 06:47:09;;;;;;;0.50;0.50;;;;;;;;;;5094004;22;21001;-67
2021/10/19 06:49:35;;;;;;;0.40;0.40;;;;;;;;;;5052541;28;20410;-67
2021/10/19 06:52:01;;;;;;;0.40;0.40;;;;;;;;;;5051634;28;20164;-67
2021/10/19 06:54:27;;;;;;;0.40;0.40;;;;;;;;;;5034933;28;20438;-67
2021/10/19 06:56:53;;;;;;;0.40;0.40;;;;;;;;;;5052615;28;20433;-67
2021/10/19 06:59:20;;;;;;;0.37;0.37;;;;;;;;;;5052903;28;20176;-67
2021/10/19 07:01:46;;;;;;;2.05;0.40;;;;;;;;;;5052629;28;20893;-67
2021/10/19 07:04:12;;;;;;;2.70;0.50;;;;;;;;;;5052664;28;20200;-67
2021/10/19 07:06:37;;;;;;;0.37;0.37;;;;;;;;;;5052589;28;20418;-67
2021/10/19 07:09:03;;;;;;;0.40;0.40;;;;;;;;;;5052116;28;20399;-71
2021/10/19 07:11:30;;;;;;;0.40;0.40;;;;;;;;;;5052613;28;20490;-67
2021/10/19 07:13:56;;;;;;;0.38;0.38;;;;;;;;;;5034864;28;20442;-67
2021/10/19 07:16:22;;;;;;;0.30;0.30;;;;;;;;;;5034569;28;20168;-67
2021/10/19 07:18:48;;;;;;;0.40;0.40;;;;;;;;;;5034673;28;20350;-67
2021/10/19 07:21:14;;;;;;;0.40;0.40;;;;;;;;;;5052244;28;20403;-67
2021/10/19 07:23:40;;;;;;;0.40;0.40;;;;;;;;;;5052345;28;20778;-67
2021/10/19 07:26:06;;;;;;;0.40;0.40;;;;;;;;;;5052191;28;20199;-67
2021/10/19 07:28:32;;;;;;;0.40;0.40;;;;;;;;;;5052372;28;20434;-67
2021/10/19 07:30:58;;;;;;;0.40;0.40;;;;;;;;;;5051989;28;20410;-67
2021/10/19 07:33:24;;;;;;;0.40;0.40;;;;;;;;;;5051688;28;20403;-67
2021/10/19 07:35:50;;;;;;;0.40;0.40;;;;;;;;;;5051088;28;20877;-67
2021/10/19 07:38:16;;;;;;;0.40;0.40;;;;;;;;;;5052158;28;20401;-67
2021/10/19 07:40:42;;;;;;;0.40;0.40;;;;;;;;;;5051778;28;20419;-67
2021/10/19 07:43:08;;;;;;;0.40;0.40;;;;;;;;;;5052056;28;20970;-67
2021/10/19 07:45:34;;;;;;;0.40;0.40;;;;;;;;;;5051750;28;20994;-67
2021/10/19 07:48:01;;;;;;;0.40;0.40;;;;;;;;;;5051715;28;20800;-67
2021/10/19 07:50:30;;;;;;;0.40;0.40;;;;;;;;;;5051593;28;20251;-67
2021/10/19 07:53:00;;;;;;;0.40;0.40;;;;;;;;;;5051789;28;20164;-67
2021/10/19 07:55:27;;;;;;;0.40;0.40;;;;;;;;;;5051853;28;20742;-67
2021/10/19 07:57:53;;;;;;;0.40;0.40;;;;;;;;;;5051837;28;20196;-68
2021/10/19 08:00:23;;;;;;;0.40;0.40;;;;;;;;;;5051622;28;20176;-67
2021/10/19 08:02:49;;;;;;;0.40;0.40;;;;;;;;;;5051565;28;20509;-67
2021/10/19 08:05:15;;;;;;;0.40;0.40;;;;;;;;;;5051581;28;20209;-67
2021/10/19 08:07:42;;;;;;;0.40;0.40;;;;;;;;;;5051519;28;20429;-67
2021/10/19 08:10:08;;;;;;;0.40;0.40;;;;;;;;;;5051340;28;20165;-67
2021/10/19 08:12:35;;;;;;;0.40;0.40;;;;;;;;;;5051567;28;20652;-67
2021/10/19 08:15:01;;;;;;;0.40;0.40;;;;;;;;;;5051439;28;20495;-67
2021/10/19 08:17:28;;;;;;;0.40;0.40;;;;;;;;;;5051532;28;20476;-67
2021/10/19 08:19:59;;;;;;;0.40;0.40;;;;;;;;;;5051529;28;20172;-67
2021/10/19 08:22:25;;;;;;;0.40;0.40;;;;;;;;;;5051396;28;20260;-68
2021/10/19 08:24:51;;;;;;;0.40;0.40;;;;;;;;;;5051437;28;20192;-67
2021/10/19 08:27:17;;;;;;;0.40;0.40;;;;;;;;;;5051791;28;20199;-67
2021/10/19 08:29:43;;;;;;;0.40;0.30;;;;;;;;;;5051354;28;20456;-67
2021/10/19 08:32:09;;;;;;;0.50;0.30;;;;;;;;;;5051240;28;20387;-67
2021/10/19 08:34:35;;;;;;;0.57;0.40;;;;;;;;;;5051459;28;20407;-67
2021/10/19 08:37:01;;;;;;;0.40;0.40;;;;;;;;;;5033428;28;20537;-67
2021/10/19 08:39:27;;;;;;;0.40;0.30;;;;;;;;;;5051494;28;20472;-67
2021/10/19 08:41:53;;;;;;;0.40;0.40;;;;;;;;;;5051302;28;20529;-68
2021/10/19 08:44:19;;;;;;;0.40;0.40;;;;;;;;;;5052504;28;20464;-67
2021/10/19 08:46:45;;;;;;;0.40;0.40;;;;;;;;;;5055439;28;20434;-68
2021/10/19 08:49:11;;;;;;;0.40;0.30;;;;;;;;;;5037600;28;20453;-67
2021/10/19 08:51:39;;;;;;;0.40;0.40;;;;;;;;;;5055133;28;20183;-67
2021/10/19 08:54:07;;;;;;;0.40;0.40;;;;;;;;;;5055228;28;20398;-67
2021/10/19 08:56:33;;;;;;;0.40;0.40;;;;;;;;;;5055140;28;20244;-67
2021/10/19 08:58:59;;;;;;;0.40;0.40;;;;;;;;;;5054968;28;20175;-67
2021/10/19 09:01:32;;;;;;;0.40;0.40;;;;;;;;;;5054955;28;20840;-67
2021/10/19 09:03:58;;;;;;;0.40;0.40;;;;;;;;;;5055042;28;20167;-67
2021/10/19 09:06:33;;;;;;;0.40;0.40;;;;;;;;;;5054472;28;20670;-67
2021/10/19 09:09:03;;;;;;;0.40;0.40;;;;;;;;;;5054931;28;20445;-67
2021/10/19 09:11:36;;;;;;;0.40;0.40;;;;;;;;;;5054740;28;20169;-67
2021/10/19 09:14:02;;;;;;;0.40;0.40;;;;;;;;;;5054926;28;20168;-67
2021/10/19 09:16:38;;;;;;;0.40;0.40;;;;;;;;;;5054940;28;20540;-67
2021/10/19 09:19:04;;;;;;;0.40;0.40;;;;;;;;;;5054648;28;20406;-67
2021/10/19 09:21:30;;;;;;;0.40;0.35;;;;;;;;;;5054541;28;20168;-67
2021/10/19 09:24:15;;;;;;;0.40;0.40;;;;;;;;;;5054520;28;20200;-67
2021/10/19 09:27:10;;;;;;;0.40;0.40;;;;;;;;;;5054567;28;20286;-67
2021/10/19 09:29:37;;;;;;;0.40;0.40;;;;;;;;;;5041708;28;20258;-67
2021/10/19 09:32:06;;;;;;;0.40;0.40;;;;;;;;;;5054292;28;20172;-67
2021/10/19 09:34:33;;;;;;;0.40;0.40;;;;;;;;;;5054418;28;20544;-67
2021/10/19 09:36:59;;;;;;;0.40;0.40;;;;;;;;;;5054352;28;20184;-67
2021/10/19 09:39:33;;;;;;;0.40;0.38;;;;;;;;;;5054420;28;20187;-67
2021/10/19 09:41:59;;;;;;;0.40;0.40;;;;;;;;;;5054068;28;20172;-67
2021/10/19 09:44:25;;;;;;;0.40;0.40;;;;;;;;;;5054351;28;20658;-67
2021/10/19 09:46:51;;;;;;;0.40;0.40;;;;;;;;;;5053944;28;20678;-67
2021/10/19 09:49:17;;;;;;;0.40;0.40;;;;;;;;;;5054511;28;20167;-67
2021/10/19 09:51:44;;;;;;;0.40;0.40;;;;;;;;;;5053854;28;20946;-67
2021/10/19 09:54:11;;;;;;;0.30;0.30;;;;;;;;;;5054077;28;20230;-67
2021/10/19 09:56:38;;;;;;;0.40;0.40;;;;;;;;;;5053732;28;20226;-67
2021/10/19 09:59:04;;;;;;;0.40;0.40;;;;;;;;;;5051324;28;20180;-67
2021/10/19 10:01:31;;;;;;;0.30;0.30;;;;;;;;;;5053675;28;20263;-67
2021/10/19 10:03:58;;;;;;;0.40;0.40;;;;;;;;;;5053284;28;20544;-67
2021/10/19 10:06:24;;;;;;;0.40;0.40;;;;;;;;;;5053946;28;20175;-67
2021/10/19 10:08:50;;;;;;;0.40;0.40;;;;;;;;;;5054163;28;20647;-67
2021/10/19 10:11:17;;;;;;;0.40;0.40;;;;;;;;;;5053616;28;20650;-67
2021/10/19 10:13:43;;;;;;;0.40;0.40;;;;;;;;;;5053642;28;20207;-67
2021/10/19 10:16:10;;;;;;;0.40;0.40;;;;;;;;;;5053244;28;20305;-67
2021/10/19 10:18:36;;;;;;;0.30;0.30;;;;;;;;;;5053615;28;20608;-67
2021/10/19 10:21:12;;;;;;;0.40;0.40;;;;;;;;;;5053145;28;20199;-67
2021/10/19 10:23:40;;;;;;;0.40;0.40;;;;;;;;;;5053898;28;20218;-67
2021/10/19 10:26:10;;;;;;;0.30;0.30;;;;;;;;;;5053106;28;20200;-67
2021/10/19 10:28:36;;;;;;;0.30;0.30;;;;;;;;;;5053530;28;20651;-67
2021/10/19 10:31:02;;;;;;;0.40;0.40;;;;;;;;;;5053193;28;20175;-67
2021/10/19 10:33:35;;;;;;;0.40;0.40;;;;;;;;;;5035681;28;20172;-66
2021/10/19 10:36:09;;;;;;;0.40;0.40;;;;;;;;;;5035404;28;20436;-67
2021/10/19 10:38:39;;;;;;;0.40;0.40;;;;;;;;;;5052912;28;20192;-67
2021/10/19 10:41:12;;;;;;;0.40;0.40;;;;;;;;;;5052858;28;20176;-67
2021/10/19 10:43:38;;;;;;;0.38;0.38;;;;;;;;;;5053115;28;20686;-67
2021/10/19 10:46:06;;;;;;;0.40;0.40;;;;;;;;;;5053076;28;20625;-67
2021/10/19 10:48:32;;;;;;;0.30;0.30;;;;;;;;;;5052359;28;20212;-67
2021/10/19 10:50:58;;;;;;;0.40;0.40;;;;;;;;;;5052942;28;20233;-67
2021/10/19 10:53:31;;;;;;;0.40;0.40;;;;;;;;;;5052650;28;20830;-67
2021/10/19 10:55:57;;;;;;;0.40;0.40;;;;;;;;;;5053168;28;20176;-67
2021/10/19 10:58:24;;;;;;;0.33;0.33;;;;;;;;;;5052999;28;20675;-68
2021/10/19 11:01:00;;;;;;;0.30;0.30;;;;;;;;;;5049870;28;20885;-66
2021/10/19 11:03:26;;;;;;;0.30;0.30;;;;;;;;;;5050179;28;20549;-68
2021/10/19 11:05:59;;;;;;;0.35;0.35;;;;;;;;;;5052801;28;20197;-68
2021/10/19 11:08:27;;;;;;;0.30;0.30;;;;;;;;;;5052000;28;20196;-68
2021/10/19 11:11:02;;;;;;;0.40;0.40;;;;;;;;;;5052147;28;20172;-68
2021/10/19 11:13:28;;;;;;;0.30;0.30;;;;;;;;;;5034806;28;20221;-68
2021/10/19 11:15:56;;;;;;;0.40;0.40;;;;;;;;;;5052570;28;20550;-68
2021/10/19 11:18:25;;;;;;;0.40;0.40;;;;;;;;;;5052335;28;20211;-67
2021/10/19 11:20:57;;;;;;;0.40;0.40;;;;;;;;;;5052068;28;20172;-68
2021/10/19 11:23:24;;;;;;;0.30;0.30;;;;;;;;;;5051969;28;20651;-68
2021/10/19 11:25:50;;;;;;;0.30;0.30;;;;;;;;;;5052225;28;20208;-68
2021/10/19 11:28:16;;;;;;;0.30;0.30;;;;;;;;;;5052263;28;20558;-68
2021/10/19 11:30:43;;;;;;;0.30;0.30;;;;;;;;;;5052021;28;20453;-68
2021/10/19 11:33:09;;;;;;;0.30;0.30;;;;;;;;;;5051598;28;20187;-65
2021/10/19 11:35:35;;;;;;;0.30;0.30;;;;;;;;;;5052230;28;20402;-67
2021/10/19 11:38:02;;;;;;;0.30;0.30;;;;;;;;;;5034171;28;20224;-67
2021/10/19 11:40:28;;;;;;;0.30;0.30;;;;;;;;;;5051896;28;20427;-67
2021/10/19 11:42:56;;;;;;;0.30;0.30;;;;;;;;;;5052493;28;20176;-67
2021/10/19 11:45:22;;;;;;;0.40;0.40;;;;;;;;;;5051329;28;20197;-67
2021/10/19 11:47:50;;;;;;;0.40;0.40;;;;;;;;;;5033888;28;20230;-67
2021/10/19 11:50:18;;;;;;;0.30;0.30;;;;;;;;;;5051634;28;20401;-67
2021/10/19 11:52:44;;;;;;;0.30;0.30;;;;;;;;;;5051959;28;20374;-67
2021/10/19 11:55:10;;;;;;;0.40;0.40;;;;;;;;;;5051357;28;20595;-67
2021/10/19 11:57:38;;;;;;;0.40;0.40;;;;;;;;;;5051410;28;20197;-67
2021/10/19 12:00:11;;;;;;;0.30;0.30;;;;;;;;;;5051915;28;20987;-67
2021/10/19 12:02:59;;;;;;;0.40;0.40;;;;;;;;;;5051634;28;20181;-67
2021/10/19 12:05:26;;;;;;;0.30;0.30;;;;;;;;;;5051481;28;20509;-67
2021/10/19 12:07:53;;;;;;;0.37;0.37;;;;;;;;;;5051237;28;20544;-67
2021/10/19 12:10:22;;;;;;;0.40;0.40;;;;;;;;;;5051340;28;20431;-67
2021/10/19 12:12:53;;;;;;;0.30;0.30;;;;;;;;;;5051654;28;20175;-67
2021/10/19 12:15:23;;;;;;;0.40;0.40;;;;;;;;;;5051521;28;20402;-67
2021/10/19 12:17:56;;;;;;;0.40;0.40;;;;;;;;;;5050970;28;20200;-67
2021/10/19 12:20:22;;;;;;;0.40;0.40;;;;;;;;;;5051232;28;20222;-67
2021/10/19 12:22:48;;;;;;;0.40;0.40;;;;;;;;;;5051407;28;20591;-67
2021/10/19 12:25:14;;;;;;;0.40;0.40;;;;;;;;;;5051402;28;20196;-66
2021/10/19 12:27:40;;;;;;;0.40;0.40;;;;;;;;;;5051430;28;20415;-67
2021/10/19 12:30:16;;;;;;;0.40;0.40;;;;;;;;;;5050528;28;20398;-67
2021/10/19 12:32:42;;;;;;;0.40;0.40;;;;;;;;;;5051250;28;20630;-66
2021/10/19 12:35:09;;;;;;;0.30;0.30;;;;;;;;;;5051288;28;20259;-67
2021/10/19 12:37:36;;;;;;;0.40;0.40;;;;;;;;;;5033654;28;20828;-66
2021/10/19 12:40:03;;;;;;;0.40;0.40;;;;;;;;;;5032707;28;20176;-66
2021/10/19 12:42:30;;;;;;;0.40;0.40;;;;;;;;;;5051327;28;20180;-66
2021/10/19 12:44:56;;;;;;;0.32;0.32;;;;;;;;;;5033316;28;20252;-68
2021/10/19 12:47:22;;;;;;;0.40;0.40;;;;;;;;;;5069340;22;20330;-65
2021/10/19 12:49:48;;;;;;;0.40;0.40;;;;;;;;;;5051334;28;20481;-64
2021/10/19 12:52:14;;;;;;;0.30;0.30;;;;;;;;;;5047838;28;20782;-65
2021/10/19 12:54:40;;;;;;;0.40;0.40;;;;;;;;;;5051146;28;20417;-65
2021/10/19 12:57:06;;;;;;;0.40;0.40;;;;;;;;;;5051143;28;20426;-65
2021/10/19 12:59:32;;;;;;;0.40;0.40;;;;;;;;;;5051124;28;20455;-64
2021/10/19 13:01:58;;;;;;;0.30;0.30;;;;;;;;;;5050124;28;20399;-64
2021/10/19 13:04:25;;;;;;;0.40;0.40;;;;;;;;;;5050971;28;20283;-64
2021/10/19 13:06:51;;;;;;;0.30;0.30;;;;;;;;;;5051091;28;20418;-66
2021/10/19 13:09:17;;;;;;;0.30;0.30;;;;;;;;;;5051207;28;20506;-63
2021/10/19 13:11:43;;;;;;;0.40;0.40;;;;;;;;;;5050797;28;20177;-66
2021/10/19 13:14:10;;;;;;;0.30;0.30;;;;;;;;;;5050463;28;20173;-64
2021/10/19 13:16:36;;;;;;;0.40;0.40;;;;;;;;;;5050939;28;20776;-65
2021/10/19 13:19:02;;;;;;;0.40;0.40;;;;;;;;;;5050900;28;20433;-66
2021/10/19 13:21:28;;;;;;;0.30;0.30;;;;;;;;;;5050477;28;20460;-66
2021/10/19 13:23:54;;;;;;;0.40;0.40;;;;;;;;;;5050705;28;20377;-63
2021/10/19 13:26:20;;;;;;;0.30;0.30;;;;;;;;;;5050526;28;20898;-66
2021/10/19 13:28:46;;;;;;;0.40;0.40;;;;;;;;;;5050907;28;20959;-65
2021/10/19 13:31:12;;;;;;;0.30;0.30;;;;;;;;;;5053243;28;20815;-66
2021/10/19 13:33:38;;;;;;;0.40;0.40;;;;;;;;;;5054231;28;20433;-66
2021/10/19 13:36:04;;;;;;;0.30;0.30;;;;;;;;;;5054168;28;20413;-66
2021/10/19 13:38:31;;;;;;;0.30;0.30;;;;;;;;;;5054491;28;20449;-66
2021/10/19 13:40:57;;;;;;;0.30;0.30;;;;;;;;;;5052398;28;20391;-66
2021/10/19 13:43:23;;;;;;;0.30;0.30;;;;;;;;;;5054289;28;20505;-66
2021/10/19 13:45:49;;;;;;;0.30;0.30;;;;;;;;;;5054255;28;20905;-65
2021/10/19 13:48:16;;;;;;;0.30;0.30;;;;;;;;;;5053526;28;20446;-64
2021/10/19 13:50:42;;;;;;;0.30;0.30;;;;;;;;;;5053989;28;20417;-64
2021/10/19 13:53:08;;;;;;;0.30;0.30;;;;;;;;;;5054127;28;20388;-66
2021/10/19 13:55:35;;;;;;;0.30;0.30;;;;;;;;;;5054149;28;20414;-64
2021/10/19 13:58:01;;;;;;;0.30;0.30;;;;;;;;;;5053656;28;20481;-64
2021/10/19 14:00:27;;;;;;;0.30;0.30;;;;;;;;;;5053495;28;20517;-63
2021/10/19 14:02:54;;;;;;;0.30;0.30;;;;;;;;;;5053861;28;20411;-64
2021/10/19 14:05:20;;;;;;;0.30;0.30;;;;;;;;;;5053400;28;20467;-65
2021/10/19 14:07:46;;;;;;;0.30;0.30;;;;;;;;;;5053787;28;20882;-65
2021/10/19 14:10:12;;;;;;;0.30;0.30;;;;;;;;;;5053103;28;20435;-64
2021/10/19 14:12:38;;;;;;;0.30;0.30;;;;;;;;;;5053960;28;20382;-66
2021/10/19 14:15:05;;;;;;;0.30;0.30;;;;;;;;;;5053838;28;20909;-65
2021/10/19 14:17:31;;;;;;;0.30;0.30;;;;;;;;;;5053618;28;20437;-65
2021/10/19 14:19:57;;;;;;;0.30;0.30;;;;;;;;;;5053534;28;20422;-65
2021/10/19 14:22:24;;;;;;;0.40;0.40;;;;;;;;;;5053125;28;20403;-65
2021/10/19 14:24:50;;;;;;;0.30;0.30;;;;;;;;;;5053473;28;20462;-64
2021/10/19 14:27:16;;;;;;;0.30;0.30;;;;;;;;;;5053499;28;20433;-64
2021/10/19 14:29:44;;;;;;;0.30;0.30;;;;;;;;;;5053378;28;20384;-64
2021/10/19 14:32:10;;;;;;;0.30;0.30;;;;;;;;;;5052590;28;20385;-62
2021/10/19 14:34:36;;;;;;;0.30;0.30;;;;;;;;;;5053392;28;20434;-64
2021/10/19 14:37:02;;;;;;;0.30;0.30;;;;;;;;;;5053134;28;20960;-65
2021/10/19 14:39:28;;;;;;;0.30;0.30;;;;;;;;;;5053089;28;20381;-64